Time;durP1;ratioP1;P1;durP2;ratioP2;P2;SDS_P1;SDS_P2;PMS_P1;PMS_P2;Temp;Humidity;BMP_temperature;BMP_pressure;BME280_temperature;BME280_humidity;BME280_pressure;Samples;Min_cycle;Max_cycle;Signal;HPM_P1;HPM_P2
2023/04/22 00:00:41;;;;;;;8.32;2.45;;;;;;;10.23;44.36;98976.75;5071873;28;20040;-57
2023/04/22 00:03:08;;;;;;;6.03;2.10;;;;;;;10.14;44.46;98972.78;5050552;28;20085;-58
2023/04/22 00:05:34;;;;;;;4.60;2.33;;;;;;;10.00;44.78;98949.97;5067368;28;20040;-59
2023/04/22 00:08:00;;;;;;;8.00;2.33;;;;;;;10.03;44.99;98956.81;5068595;28;20119;-59
2023/04/22 00:10:26;;;;;;;6.13;2.10;;;;;;;10.10;45.03;98982.44;5081131;28;20052;-59
2023/04/22 00:12:52;;;;;;;7.50;2.67;;;;;;;10.05;45.08;98980.94;5086111;28;20135;-60
2023/04/22 00:15:20;;;;;;;4.43;2.40;;;;;;;9.99;45.04;98983.81;5068622;28;20166;-58
2023/04/22 00:17:47;;;;;;;6.10;2.78;;;;;;;9.94;45.21;98978.84;5085907;28;20116;-57
2023/04/22 00:20:15;;;;;;;4.93;2.53;;;;;;;9.88;45.47;98979.09;5087030;28;20419;-55
2023/04/22 00:22:41;;;;;;;5.05;2.55;;;;;;;9.87;45.77;98981.75;5087572;28;20040;-60
2023/04/22 00:25:07;;;;;;;7.28;2.80;;;;;;;9.79;45.45;98980.31;5087940;28;20050;-57
2023/04/22 00:27:33;;;;;;;8.82;2.30;;;;;;;9.57;45.97;98955.34;5069282;28;20044;-61
2023/04/22 00:29:59;;;;;;;9.55;2.75;;;;;;;9.49;45.97;98953.06;5084949;28;20028;-59
2023/04/22 00:32:25;;;;;;;7.40;2.65;;;;;;;9.61;45.79;98977.66;5085495;28;20125;-58
2023/04/22 00:34:51;;;;;;;5.85;2.28;;;;;;;9.63;46.00;98988.81;5101397;28;20036;-59
2023/04/22 00:37:18;;;;;;;7.68;2.40;;;;;;;9.62;46.37;98987.13;5084946;28;20044;-61
2023/04/22 00:39:45;;;;;;;5.13;2.72;;;;;;;9.45;46.59;98964.47;5066636;28;20059;-58
2023/04/22 00:42:12;;;;;;;8.25;2.33;;;;;;;9.56;46.42;98980.44;5101399;28;20536;-58
2023/04/22 00:44:40;;;;;;;6.40;2.10;;;;;;;9.53;46.36;98985.75;5046685;28;20198;-58
2023/04/22 00:47:06;;;;;;;5.40;2.70;;;;;;;9.49;46.69;98979.00;5082239;28;20043;-60
2023/04/22 00:49:34;;;;;;;14.25;2.60;;;;;;;9.53;46.74;98979.72;5029804;28;20509;-61
2023/04/22 00:52:00;;;;;;;4.25;1.95;;;;;;;9.43;46.99;98968.88;5049017;28;20553;-58
2023/04/22 00:54:27;;;;;;;4.25;2.00;;;;;;;9.45;47.32;98985.22;5049089;28;20136;-59
2023/04/22 00:56:55;;;;;;;3.65;2.15;;;;;;;9.42;47.20;98989.72;5065837;28;20103;-58
2023/04/22 00:59:22;;;;;;;4.28;2.00;;;;;;;9.26;47.15;98973.91;5036018;28;20041;-60
2023/04/22 01:01:48;;;;;;;4.20;2.00;;;;;;;9.12;47.36;98952.88;5046271;28;20131;-57
2023/04/22 01:04:14;;;;;;;4.28;1.77;;;;;;;9.23;47.30;98982.66;5062533;28;20063;-59
2023/04/22 01:06:42;;;;;;;7.97;1.95;;;;;;;9.16;47.58;98976.00;5065449;28;20040;-58
2023/04/22 01:09:08;;;;;;;7.07;1.95;;;;;;;9.13;47.43;98976.16;5067698;28;20044;-59
2023/04/22 01:11:35;;;;;;;4.78;2.17;;;;;;;8.99;47.74;98951.69;5065544;28;20044;-58
2023/04/22 01:14:02;;;;;;;3.97;1.83;;;;;;;8.94;48.00;98954.47;5067083;28;20527;-57
2023/04/22 01:16:29;;;;;;;4.72;2.13;;;;;;;9.09;48.23;98977.19;5066448;28;20252;-55
2023/04/22 01:18:56;;;;;;;4.53;2.20;;;;;;;9.01;47.86;98963.66;5065583;28;20033;-56
2023/04/22 01:21:24;;;;;;;3.45;1.98;;;;;;;9.04;47.87;98970.50;5066493;28;20063;-55
2023/04/22 01:23:50;;;;;;;6.00;2.22;;;;;;;9.01;48.28;98981.81;5065678;28;20040;-58
2023/04/22 01:26:16;;;;;;;4.43;2.25;;;;;;;8.99;48.46;98969.81;5063767;28;20059;-59
2023/04/22 01:28:42;;;;;;;2.97;1.90;;;;;;;8.96;48.68;98970.78;5065290;28;20044;-58
2023/04/22 01:31:08;;;;;;;6.35;2.10;;;;;;;8.93;48.60;98963.97;5049281;28;20043;-56
2023/04/22 01:33:34;;;;;;;4.93;2.30;;;;;;;8.91;48.74;98975.28;5067047;28;20102;-61
2023/04/22 01:36:00;;;;;;;6.45;2.30;;;;;;;8.87;48.73;98968.56;5066213;28;20072;-59
2023/04/22 01:38:27;;;;;;;7.65;1.83;;;;;;;8.72;48.56;98946.66;5067684;28;20613;-58
2023/04/22 01:40:53;;;;;;;5.13;1.90;;;;;;;8.82;49.07;98968.72;5068926;28;20036;-58
2023/04/22 01:43:19;;;;;;;4.07;1.83;;;;;;;8.82;49.10;98958.38;5071088;28;20473;-59
2023/04/22 01:45:45;;;;;;;5.13;2.13;;;;;;;8.81;49.08;98961.84;5052130;28;20369;-60
2023/04/22 01:48:11;;;;;;;3.50;2.05;;;;;;;8.79;49.10;98971.44;5070876;28;20508;-57
2023/04/22 01:50:37;;;;;;;4.15;2.05;;;;;;;8.77;48.89;98968.06;5103639;28;20093;-59
2023/04/22 01:53:06;;;;;;;5.20;1.85;;;;;;;8.46;49.36;98929.53;5085150;28;20039;-60
2023/04/22 01:55:34;;;;;;;5.65;2.17;;;;;;;8.68;49.13;98971.03;5069152;28;20059;-58
2023/04/22 01:58:01;;;;;;;8.50;2.42;;;;;;;8.67;49.46;98977.09;5066380;28;20484;-57
2023/04/22 02:00:27;;;;;;;6.70;2.45;;;;;;;8.64;49.59;98971.16;5069472;28;20048;-60
2023/04/22 02:02:53;;;;;;;6.05;2.15;;;;;;;8.61;49.78;98973.88;5068634;28;20089;-58
2023/04/22 02:05:19;;;;;;;10.07;2.40;;;;;;;8.59;49.84;98979.13;5102735;28;20072;-61
2023/04/22 02:07:45;;;;;;;4.50;2.38;;;;;;;8.43;49.79;98942.56;5068938;28;20037;-60
2023/04/22 02:10:15;;;;;;;6.28;2.47;;;;;;;8.57;50.02;98973.16;5086620;28;20048;-59
2023/04/22 02:12:41;;;;;;;10.38;2.55;;;;;;;8.55;49.99;98974.09;5085316;28;20480;-58
2023/04/22 02:15:08;;;;;;;14.10;2.40;;;;;;;8.54;50.26;98970.69;5068322;28;20534;-58
2023/04/22 02:17:34;;;;;;;8.50;2.75;;;;;;;8.54;50.40;98970.69;5069598;28;20062;-57
2023/04/22 02:20:01;;;;;;;4.63;2.22;;;;;;;8.34;50.13;98939.50;5069211;28;20036;-59
2023/04/22 02:22:34;;;;;;;10.68;2.55;;;;;;;8.28;50.54;98935.34;5070081;28;20470;-57
2023/04/22 02:25:00;;;;;;;11.82;2.40;;;;;;;8.47;50.25;98966.66;5101510;28;20040;-59
2023/04/22 02:27:26;;;;;;;4.53;2.25;;;;;;;8.44;50.45;98970.19;5070101;28;20528;-57
2023/04/22 02:29:52;;;;;;;8.05;2.25;;;;;;;8.44;50.48;98965.00;5068233;28;20131;-57
2023/04/22 02:32:19;;;;;;;9.18;2.72;;;;;;;8.44;50.44;98961.56;5084698;28;20067;-56
2023/04/22 02:34:46;;;;;;;9.80;2.35;;;;;;;8.41;50.70;98970.31;5040335;28;20091;-54
2023/04/22 02:37:13;;;;;;;6.72;2.13;;;;;;;8.42;50.32;98965.97;5060344;28;20068;-60
2023/04/22 02:39:39;;;;;;;8.80;2.25;;;;;;;8.42;50.79;98972.00;5050143;28;20037;-55
2023/04/22 02:42:06;;;;;;;8.10;1.90;;;;;;;8.43;50.63;98976.25;5072681;28;20508;-58
2023/04/22 02:44:32;;;;;;;5.95;2.25;;;;;;;8.44;50.72;98975.34;5068348;28;20666;-57
2023/04/22 02:46:58;;;;;;;7.53;2.30;;;;;;;8.45;50.59;98971.03;5051361;28;20044;-59
2023/04/22 02:49:24;;;;;;;3.63;1.92;;;;;;;8.46;50.45;98978.75;5068088;28;20534;-59
2023/04/22 02:51:52;;;;;;;7.75;2.20;;;;;;;8.48;50.92;98973.50;5066823;28;20146;-58
2023/04/22 02:54:18;;;;;;;6.82;2.35;;;;;;;8.50;50.76;98982.91;5068157;28;20052;-61
2023/04/22 02:56:44;;;;;;;12.20;2.63;;;;;;;8.55;50.98;98982.72;5101014;28;20052;-57
2023/04/22 02:59:10;;;;;;;5.00;2.42;;;;;;;8.42;50.99;98956.47;5069955;28;20118;-59
2023/04/22 03:01:37;;;;;;;5.82;2.40;;;;;;;8.57;50.77;98980.94;5068001;28;20392;-59
2023/04/22 03:04:06;;;;;;;6.32;2.42;;;;;;;8.32;50.61;98936.13;5048355;28;20036;-60
2023/04/22 03:06:32;;;;;;;5.30;2.80;;;;;;;8.59;50.99;98983.44;5084704;28;20087;-58
2023/04/22 03:08:58;;;;;;;5.22;2.55;;;;;;;8.59;50.67;98978.28;5034822;28;20781;-58
2023/04/22 03:11:24;;;;;;;5.25;3.15;;;;;;;8.62;50.97;98985.94;5067770;28;20463;-58
2023/04/22 03:13:50;;;;;;;7.68;2.83;;;;;;;8.66;50.51;98987.50;5041388;28;20036;-57
2023/04/22 03:16:16;;;;;;;10.02;3.28;;;;;;;8.70;50.77;98983.91;5058921;28;20040;-58
2023/04/22 03:18:42;;;;;;;7.22;2.58;;;;;;;8.76;50.85;98986.25;5101234;28;20677;-57
2023/04/22 03:21:09;;;;;;;6.05;2.72;;;;;;;8.82;50.65;98978.25;5051265;28;20054;-61
2023/04/22 03:23:35;;;;;;;4.03;2.30;;;;;;;8.88;50.84;98980.63;5067571;28;20523;-57
2023/04/22 03:26:01;;;;;;;6.68;2.47;;;;;;;8.79;50.19;98968.03;5067402;28;20040;-56
2023/04/22 03:28:28;;;;;;;4.85;1.95;;;;;;;8.95;50.21;98986.41;5051332;28;20349;-60
2023/04/22 03:30:54;;;;;;;10.43;2.35;;;;;;;8.98;50.36;98994.91;5067755;28;20538;-59
2023/04/22 03:33:21;;;;;;;11.85;2.45;;;;;;;9.04;50.03;98993.81;5067137;28;20130;-58
2023/04/22 03:35:54;;;;;;;13.48;2.60;;;;;;;9.08;50.24;98998.81;5100995;28;20427;-59
2023/04/22 03:38:20;;;;;;;7.15;2.50;;;;;;;8.91;49.98;98964.94;5066847;28;20040;-60
2023/04/22 03:40:48;;;;;;;6.05;2.70;;;;;;;9.12;50.05;98997.78;5050988;28;20214;-57
2023/04/22 03:43:21;;;;;;;5.40;2.55;;;;;;;9.21;50.37;99001.78;5100769;28;20044;-58
2023/04/22 03:45:58;;;;;;;4.93;2.45;;;;;;;9.25;49.69;99001.59;5104238;28;20044;-56
2023/04/22 03:48:28;;;;;;;8.75;2.60;;;;;;;9.27;49.79;99002.38;5086862;28;20397;-57
2023/04/22 03:50:56;;;;;;;9.82;2.42;;;;;;;9.33;49.68;99011.66;5103592;28;20047;-60
2023/04/22 03:53:24;;;;;;;8.68;2.33;;;;;;;9.26;49.77;98986.91;5104573;28;20039;-58
2023/04/22 03:55:51;;;;;;;3.80;2.10;;;;;;;9.14;49.23;98962.28;5087709;28;20032;-59
2023/04/22 03:58:17;;;;;;;3.95;2.10;;;;;;;9.48;49.42;99013.63;5036771;28;20040;-57
2023/04/22 04:00:44;;;;;;;6.68;2.05;;;;;;;9.55;49.05;99011.63;5104105;28;20047;-61
2023/04/22 04:03:14;;;;;;;5.43;2.05;;;;;;;9.62;48.85;99020.88;5096141;28;20048;-59
2023/04/22 04:05:40;;;;;;;15.32;2.88;;;;;;;9.68;49.08;99018.03;5067103;28;20048;-62
2023/04/22 04:08:08;;;;;;;5.18;2.33;;;;;;;9.72;49.03;99017.00;5050479;28;20147;-58
2023/04/22 04:10:35;;;;;;;5.45;2.33;;;;;;;9.77;48.54;99017.63;5066873;28;20123;-58
2023/04/22 04:13:04;;;;;;;5.00;2.22;;;;;;;9.82;48.56;99023.47;5084877;28;20067;-59
2023/04/22 04:15:38;;;;;;;7.07;2.40;;;;;;;9.87;48.73;99028.47;5069511;28;20296;-59
2023/04/22 04:18:05;;;;;;;9.43;2.65;;;;;;;9.90;48.52;99023.16;5044822;28;20036;-58
2023/04/22 04:20:32;;;;;;;7.90;2.90;;;;;;;9.87;47.89;99018.09;5069900;28;20388;-61
2023/04/22 04:22:58;;;;;;;3.75;2.35;;;;;;;9.98;48.42;99021.09;5104091;28;20105;-57
2023/04/22 04:25:25;;;;;;;8.27;2.50;;;;;;;10.05;48.19;99022.50;5068574;28;20074;-57
2023/04/22 04:27:51;;;;;;;6.20;2.30;;;;;;;10.01;48.12;98995.81;5087027;28;20032;-59
2023/04/22 04:30:18;;;;;;;9.45;2.55;;;;;;;10.26;47.29;99023.38;5069827;28;20044;-60
2023/04/22 04:32:48;;;;;;;7.38;2.20;;;;;;;10.32;47.91;99026.53;5052177;28;20032;-57
2023/04/22 04:35:17;;;;;;;4.70;2.42;;;;;;;10.23;47.40;99010.50;5068780;28;20063;-59
2023/04/22 04:37:47;;;;;;;4.55;2.10;;;;;;;10.25;47.18;99003.50;5048904;28;20043;-59
2023/04/22 04:40:14;;;;;;;5.38;2.22;;;;;;;10.45;47.01;99017.31;5065496;28;20533;-59
2023/04/22 04:42:51;;;;;;;4.72;2.28;;;;;;;10.54;47.00;99018.63;5103785;28;20119;-58
2023/04/22 04:45:22;;;;;;;7.20;2.65;;;;;;;10.58;47.21;99014.97;5085254;28;20059;-60
2023/04/22 04:47:49;;;;;;;4.43;2.15;;;;;;;10.63;46.91;99020.81;5052959;28;20128;-60
2023/04/22 04:50:21;;;;;;;4.60;2.10;;;;;;;10.69;46.41;99017.94;5060724;28;20052;-59
2023/04/22 04:52:48;;;;;;;6.40;2.83;;;;;;;10.74;46.42;99021.19;5068121;28;20044;-60
2023/04/22 04:55:17;;;;;;;8.18;2.30;;;;;;;10.82;46.07;99021.69;5083938;28;20041;-60
2023/04/22 04:57:44;;;;;;;2.95;1.85;;;;;;;10.93;45.92;99027.25;5079067;28;20056;-59
2023/04/22 05:00:15;;;;;;;4.10;2.08;;;;;;;11.03;45.95;99020.69;5066584;28;20063;-59
2023/04/22 05:02:42;;;;;;;12.13;2.08;;;;;;;10.74;45.50;98956.19;5082796;28;20090;-61
2023/04/22 05:05:10;;;;;;;6.30;2.00;;;;;;;11.04;45.77;99004.16;5103131;28;20052;-59
2023/04/22 05:07:38;;;;;;;5.00;2.03;;;;;;;11.26;45.49;99023.94;5102906;28;20195;-61
2023/04/22 05:10:07;;;;;;;6.40;2.42;;;;;;;11.32;45.22;99024.50;5103371;28;20504;-59
2023/04/22 05:12:33;;;;;;;7.22;2.35;;;;;;;11.39;44.44;99028.50;5083468;28;20079;-61
2023/04/22 05:14:59;;;;;;;10.50;2.47;;;;;;;11.49;44.27;99028.91;5063746;28;20052;-58
2023/04/22 05:17:26;;;;;;;3.55;2.35;;;;;;;11.62;44.63;99029.97;5080460;28;20496;-59
2023/04/22 05:19:52;;;;;;;7.70;2.40;;;;;;;11.75;44.67;99025.06;5105923;28;20469;-57
2023/04/22 05:22:18;;;;;;;9.38;2.40;;;;;;;11.84;43.60;99028.03;5057173;28;20044;-60
2023/04/22 05:24:46;;;;;;;6.57;2.40;;;;;;;11.93;44.42;99033.72;5107533;28;20040;-59
2023/04/22 05:27:12;;;;;;;6.97;2.15;;;;;;;11.93;44.08;99024.16;5089446;28;20507;-58
2023/04/22 05:29:38;;;;;;;8.38;2.60;;;;;;;12.12;43.44;99034.47;5073123;28;20036;-60
2023/04/22 05:32:09;;;;;;;3.90;1.80;;;;;;;12.20;43.43;99025.31;5056262;28;20044;-61
2023/04/22 05:34:35;;;;;;;5.47;2.08;;;;;;;12.36;42.76;99033.19;5055672;28;20443;-60
2023/04/22 05:37:02;;;;;;;9.40;2.28;;;;;;;12.50;42.88;99029.91;5105503;27;20071;-58
2023/04/22 05:39:29;;;;;;;10.68;2.60;;;;;;;12.71;42.27;99031.38;5072875;28;20417;-60
2023/04/22 05:41:57;;;;;;;4.28;1.80;;;;;;;12.85;42.00;99035.84;5056653;28;20127;-61
2023/04/22 05:44:23;;;;;;;7.00;2.15;;;;;;;12.82;42.17;99010.78;5106326;28;20125;-62
2023/04/22 05:46:49;;;;;;;12.98;2.63;;;;;;;12.84;41.76;99008.06;5052056;28;20853;-60
2023/04/22 05:49:17;;;;;;;5.63;1.88;;;;;;;13.08;41.63;99027.59;5053113;28;20036;-60
2023/04/22 05:52:01;;;;;;;7.45;2.38;;;;;;;13.19;41.47;99027.88;5057123;28;20046;-60
2023/04/22 05:54:36;;;;;;;6.78;2.42;;;;;;;13.31;41.12;99028.97;5072817;28;20067;-62
2023/04/22 05:57:03;;;;;;;6.80;2.10;;;;;;;13.42;40.88;99029.19;5104261;28;20059;-61
2023/04/22 05:59:29;;;;;;;6.03;1.85;;;;;;;13.53;40.59;99038.13;5087789;28;20044;-60
2023/04/22 06:01:55;;;;;;;8.02;1.35;;;;;;;13.74;40.17;99036.06;5056546;28;20097;-62
2023/04/22 06:04:21;;;;;;;6.07;1.90;;;;;;;13.92;39.85;99040.19;5108100;27;20036;-59
2023/04/22 06:06:52;;;;;;;4.47;1.52;;;;;;;14.14;39.29;99038.94;5059501;28;20407;-60
2023/04/22 06:09:20;;;;;;;10.13;1.90;;;;;;;14.34;39.24;99039.44;5043234;28;20062;-60
2023/04/22 06:11:45;;;;;;;6.30;1.50;;;;;;;14.74;38.36;99037.06;5098628;28;20194;-56
2023/04/22 06:14:12;;;;;;;6.00;2.05;;;;;;;15.55;37.14;99038.03;5064656;28;20555;-60
2023/04/22 06:16:39;;;;;;;4.30;1.30;;;;;;;16.44;35.83;99034.63;5061143;28;20214;-59
2023/04/22 06:19:06;;;;;;;7.32;1.52;;;;;;;17.51;34.04;99041.03;5066082;28;20481;-60
2023/04/22 06:21:32;;;;;;;3.80;1.85;;;;;;;18.53;32.97;99033.34;5064066;28;20044;-60
2023/04/22 06:24:00;;;;;;;7.78;1.20;;;;;;;19.54;31.68;99037.63;5082278;28;20180;-61
2023/04/22 06:26:26;;;;;;;6.60;1.23;;;;;;;20.48;30.16;99028.91;5065211;28;20491;-59
2023/04/22 06:28:52;;;;;;;3.67;1.13;;;;;;;21.50;29.02;99037.50;5078423;28;20067;-60
2023/04/22 06:31:20;;;;;;;3.83;1.38;;;;;;;22.45;27.69;99023.53;5081137;28;20065;-61
2023/04/22 06:33:46;;;;;;;3.30;2.00;;;;;;;23.48;26.50;99016.22;5102315;28;20036;-59
2023/04/22 06:36:13;;;;;;;2.15;1.48;;;;;;;24.29;25.51;99039.03;5072401;28;20182;-59
2023/04/22 06:38:39;;;;;;;3.88;1.27;;;;;;;24.94;24.21;99036.78;5068584;28;20035;-60
2023/04/22 06:41:24;;;;;;;3.03;1.50;;;;;;;25.53;23.35;99019.03;5069504;28;20078;-61
2023/04/22 06:43:54;;;;;;;3.22;1.52;;;;;;;26.14;22.77;99026.56;5082481;28;20060;-61
2023/04/22 06:46:38;;;;;;;6.70;1.67;;;;;;;26.86;21.68;99024.78;5055132;28;20039;-63
2023/04/22 06:49:25;;;;;;;5.90;1.40;;;;;;;27.48;21.04;99027.53;5071438;28;20511;-63
2023/04/22 06:51:54;;;;;;;4.50;1.65;;;;;;;28.05;20.40;99020.81;5089984;28;20430;-62
2023/04/22 06:54:20;;;;;;;3.55;1.40;;;;;;;28.61;19.35;99002.56;5105911;27;20097;-64
2023/04/22 06:56:46;;;;;;;4.22;1.88;;;;;;;29.41;19.14;99011.47;5065446;28;20448;-66
2023/04/22 06:59:12;;;;;;;3.45;1.58;;;;;;;30.17;17.99;99003.75;5064234;28;20047;-62
2023/04/22 07:01:38;;;;;;;4.97;1.80;;;;;;;30.96;17.70;99017.72;5110504;28;20134;-64
2023/04/22 07:04:05;;;;;;;5.35;1.70;;;;;;;30.68;17.66;99017.75;5084078;28;20044;-63
2023/04/22 07:06:31;;;;;;;2.80;1.52;;;;;;;31.45;17.22;99021.03;5064071;28;20093;-64
2023/04/22 07:08:57;;;;;;;10.70;3.10;;;;;;;32.42;16.38;99019.72;5114357;27;20039;-65
2023/04/22 07:11:23;;;;;;;10.00;2.50;;;;;;;32.00;15.90;99020.94;5063995;28;20790;-63
2023/04/22 07:14:12;;;;;;;4.38;1.65;;;;;;;29.20;17.59;99021.28;5087568;28;20054;-63
2023/04/22 07:16:39;;;;;;;4.57;1.65;;;;;;;28.25;18.38;99021.16;5060908;28;20526;-65
2023/04/22 07:19:05;;;;;;;3.33;1.35;;;;;;;29.04;17.62;99008.94;5093810;28;20048;-66
2023/04/22 07:21:31;;;;;;;76.05;10.85;;;;;;;30.41;16.76;99014.03;5094973;28;20047;-63
2023/04/22 07:23:57;;;;;;;3.35;1.42;;;;;;;30.89;16.43;99023.03;5077859;28;20047;-63
2023/04/22 07:26:24;;;;;;;8.68;1.52;;;;;;;32.06;15.52;99026.31;5065321;28;20100;-65
2023/04/22 07:28:50;;;;;;;4.47;1.38;;;;;;;33.35;14.83;99023.84;5096693;28;20138;-66
2023/04/22 07:31:16;;;;;;;9.60;1.90;;;;;;;34.21;14.07;99024.16;5081225;28;20431;-64
2023/04/22 07:33:42;;;;;;;5.43;1.50;;;;;;;34.83;13.51;99028.56;5063907;28;20036;-64
2023/04/22 07:36:08;;;;;;;8.35;2.22;;;;;;;35.52;12.98;99027.31;5059798;28;20044;-65
2023/04/22 07:38:35;;;;;;;13.38;2.03;;;;;;;36.08;12.89;99027.72;5082954;28;20036;-65
2023/04/22 07:41:01;;;;;;;2.63;1.70;;;;;;;36.56;12.35;99029.44;5041589;28;20079;-64
2023/04/22 07:43:27;;;;;;;5.03;1.40;;;;;;;37.39;11.69;99026.38;5101778;28;20063;-66
2023/04/22 07:45:52;;;;;;;3.35;2.88;;;;;;;38.00;11.63;99036.50;5085253;28;20039;-64
2023/04/22 07:48:18;;;;;;;9.13;2.53;;;;;;;38.53;11.42;99029.75;5076950;28;20538;-66
2023/04/22 07:50:44;;;;;;;3.50;1.60;;;;;;;38.63;10.97;99013.59;5065493;28;20067;-65
2023/04/22 07:53:11;;;;;;;11.60;3.63;;;;;;;38.98;10.87;99025.00;5092066;28;20186;-64
2023/04/22 07:55:37;;;;;;;12.93;3.17;;;;;;;36.19;11.92;99009.88;5060178;28;20555;-65
2023/04/22 07:58:05;;;;;;;12.35;3.95;;;;;;;33.22;13.34;99015.84;5095205;28;20040;-65
2023/04/22 08:00:35;;;;;;;8.35;2.30;;;;;;;31.01;14.62;99016.09;5069249;28;20133;-66
2023/04/22 08:03:02;;;;;;;3.83;1.60;;;;;;;29.30;15.61;99016.47;5071452;28;20043;-66
2023/04/22 08:05:28;;;;;;;4.78;1.60;;;;;;;27.91;16.90;99010.03;5069992;28;20078;-64
2023/04/22 08:07:54;;;;;;;4.05;1.50;;;;;;;26.54;17.84;98972.38;5092188;28;20044;-64
2023/04/22 08:10:20;;;;;;;6.18;1.40;;;;;;;25.58;18.67;98979.47;5084403;28;20133;-64
2023/04/22 08:12:46;;;;;;;11.23;2.00;;;;;;;24.99;19.53;99013.19;5068332;28;20125;-64
2023/04/22 08:15:12;;;;;;;5.22;1.73;;;;;;;24.12;20.21;98970.81;5086092;28;20594;-63
2023/04/22 08:17:38;;;;;;;6.13;1.40;;;;;;;23.80;20.68;98987.34;5085344;28;20036;-64
2023/04/22 08:20:05;;;;;;;1.73;1.30;;;;;;;25.95;19.29;99013.59;5082868;28;20043;-63
2023/04/22 08:22:32;;;;;;;2.22;1.08;;;;;;;28.72;17.33;99020.88;5044188;28;20048;-65
2023/04/22 08:24:59;;;;;;;6.65;1.10;;;;;;;30.73;15.89;99029.56;5062395;28;20147;-63
2023/04/22 08:27:25;;;;;;;3.13;1.25;;;;;;;32.41;14.54;99013.50;5062397;28;20047;-64
2023/04/22 08:29:51;;;;;;;2.30;1.20;;;;;;;32.73;14.01;99015.34;5092086;28;20044;-64
2023/04/22 08:32:18;;;;;;;2.38;1.40;;;;;;;31.23;14.58;99016.00;5101763;27;20043;-64
2023/04/22 08:34:45;;;;;;;3.92;1.30;;;;;;;30.03;15.37;99013.56;5103691;27;20033;-62
2023/04/22 08:37:11;;;;;;;5.18;1.20;;;;;;;29.56;15.58;99011.44;5107184;27;20040;-62
2023/04/22 08:39:37;;;;;;;4.15;1.27;;;;;;;28.96;15.99;99017.06;5085635;28;20042;-64
2023/04/22 08:42:04;;;;;;;3.75;1.60;;;;;;;29.91;15.34;99012.41;5103508;27;20518;-62
2023/04/22 08:44:30;;;;;;;2.17;1.20;;;;;;;31.04;14.97;98999.59;5067676;28;20056;-63
2023/04/22 08:46:57;;;;;;;2.65;1.10;;;;;;;32.66;13.89;98992.19;5085769;28;20062;-64
2023/04/22 08:49:26;;;;;;;2.00;1.08;;;;;;;34.15;12.99;99020.44;5095414;27;20512;-62
2023/04/22 08:51:53;;;;;;;4.03;1.38;;;;;;;33.85;13.03;99012.16;5067364;28;20049;-64
2023/04/22 08:54:18;;;;;;;6.93;1.40;;;;;;;32.14;14.03;99015.38;5099384;28;20036;-63
2023/04/22 08:56:44;;;;;;;3.55;1.20;;;;;;;29.91;15.19;98990.97;5081224;28;20032;-62
2023/04/22 08:59:11;;;;;;;8.48;1.52;;;;;;;28.43;16.20;99008.25;5091171;28;20423;-62
2023/04/22 09:01:39;;;;;;;5.07;1.20;;;;;;;27.10;17.33;98967.84;5073845;28;20039;-63
2023/04/22 09:04:06;;;;;;;;;;;;;;;26.27;17.88;99007.44;5065679;28;20091;-62
2023/04/22 09:06:32;;;;;;;4.10;1.42;;;;;;;25.83;18.36;98972.31;5075386;28;19930;-61
2023/04/22 09:09:00;;;;;;;8.93;1.73;;;;;;;25.38;19.01;99000.19;5069716;28;20102;-61
2023/04/22 09:11:27;;;;;;;5.22;1.83;;;;;;;24.80;19.69;98995.66;5051838;28;20048;-61
2023/04/22 09:13:53;;;;;;;8.93;1.95;;;;;;;24.20;20.23;99000.13;5100408;28;20063;-59
2023/04/22 09:16:19;;;;;;;8.68;2.38;;;;;;;23.56;20.73;98997.72;5056556;28;20040;-61
2023/04/22 09:18:45;;;;;;;14.60;3.03;;;;;;;23.05;21.06;99006.28;5076623;28;20533;-60
2023/04/22 09:21:11;;;;;;;34.85;3.88;;;;;;;22.71;21.70;99001.56;5081507;28;20036;-62
2023/04/22 09:24:05;;;;;;;5.90;1.90;;;;;;;22.33;22.11;98999.84;5097626;28;20423;-60
2023/04/22 09:26:32;;;;;;;8.18;1.98;;;;;;;21.97;22.63;98984.72;5076198;28;20507;-61
2023/04/22 09:28:59;;;;;;;5.95;1.70;;;;;;;21.84;22.44;99000.03;5080537;28;20513;-58
2023/04/22 09:31:27;;;;;;;3.47;1.55;;;;;;;21.70;22.35;98998.66;5065528;28;20565;-59
2023/04/22 09:33:54;;;;;;;6.07;2.08;;;;;;;22.04;22.23;98996.41;5096456;28;20040;-61
2023/04/22 09:36:27;;;;;;;8.48;2.47;;;;;;;22.88;22.00;98996.44;5082606;28;20149;-60
2023/04/22 09:38:55;;;;;;;5.03;2.15;;;;;;;25.82;19.68;98984.78;5079891;28;20079;-61
2023/04/22 09:41:34;;;;;;;7.23;1.77;;;;;;;27.43;18.26;98990.66;5060652;28;20064;-62
2023/04/22 09:44:02;;;;;;;3.72;1.77;;;;;;;27.73;18.35;99002.34;5078185;28;20135;-61
2023/04/22 09:46:30;;;;;;;3.85;1.63;;;;;;;29.69;17.29;99005.34;5067515;28;20533;-62
2023/04/22 09:48:58;;;;;;;5.10;2.35;;;;;;;31.84;15.86;99003.34;5063421;28;20508;-61
2023/04/22 09:51:26;;;;;;;3.53;2.10;;;;;;;33.44;14.68;99007.22;5079677;28;20050;-61
2023/04/22 09:54:05;;;;;;;3.63;1.98;;;;;;;34.69;13.73;99005.44;5082381;28;20046;-62
2023/04/22 09:56:50;;;;;;;2.90;1.83;;;;;;;36.09;12.31;99001.50;5068876;28;20044;-64
2023/04/22 09:59:23;;;;;;;2.58;1.42;;;;;;;34.32;13.13;98996.44;5081890;28;20032;-62
2023/04/22 10:01:51;;;;;;;2.13;1.35;;;;;;;31.89;14.08;98995.50;5099086;28;20150;-63
2023/04/22 10:04:20;;;;;;;;;;;;;;;29.88;15.24;98992.16;5054802;28;20131;-62
2023/04/22 10:06:47;;;;;;;7.30;2.17;;;;;;;28.50;16.35;98986.97;5088847;28;20014;-62
2023/04/22 10:09:14;;;;;;;9.75;2.33;;;;;;;27.46;16.83;98984.16;5063664;28;20455;-62
2023/04/22 10:11:40;;;;;;;3.42;1.65;;;;;;;29.12;15.56;98990.06;5063377;28;20048;-63
2023/04/22 10:14:09;;;;;;;1.58;1.30;;;;;;;31.96;13.82;98961.38;5052785;28;20063;-64
2023/04/22 10:16:35;;;;;;;2.30;1.20;;;;;;;32.44;13.01;98953.06;5102046;28;20047;-66
2023/04/22 10:19:03;;;;;;;4.95;1.33;;;;;;;31.81;13.60;98982.25;5057066;28;20131;-72
2023/04/22 10:21:30;;;;;;;3.33;1.20;;;;;;;30.45;14.36;98983.13;5101508;27;20056;-71
2023/04/22 10:23:58;;;;;;;2.42;1.38;;;;;;;29.09;15.10;98982.44;5035744;28;20357;-66
2023/04/22 10:27:04;;;;;;;4.43;1.30;;;;;;;27.48;16.31;98974.13;5075897;28;20507;-71
2023/04/22 10:29:38;;;;;;;3.42;1.63;;;;;;;26.50;17.33;98982.56;5040317;28;20157;-69
2023/04/22 10:32:05;;;;;;;8.68;1.88;;;;;;;25.79;18.24;98982.47;5047633;28;20542;-73
2023/04/22 10:34:31;;;;;;;6.00;1.90;;;;;;;25.38;18.62;98980.72;5069936;28;20051;-64
2023/04/22 10:37:07;;;;;;;3.42;1.38;;;;;;;24.79;18.84;98946.13;5088251;28;20416;-64
2023/04/22 10:39:34;;;;;;;3.22;1.13;;;;;;;25.67;17.84;98975.78;5087277;28;20055;-64
2023/04/22 10:42:08;;;;;;;6.47;1.23;;;;;;;27.91;16.36;98973.47;5089617;28;20085;-61
2023/04/22 10:44:51;;;;;;;3.38;1.80;;;;;;;30.87;14.63;98979.47;5071999;28;20083;-66
2023/04/22 10:47:33;;;;;;;3.72;1.50;;;;;;;33.02;13.22;98986.25;5069442;28;20212;-70
2023/04/22 10:50:30;;;;;;;3.05;1.40;;;;;;;34.51;12.43;98990.03;5077029;28;20044;-66
2023/04/22 10:52:57;;;;;;;3.60;2.30;;;;;;;35.94;11.79;98980.28;5075944;28;20563;-69
2023/04/22 10:55:24;;;;;;;5.15;2.08;;;;;;;34.30;11.92;98985.88;5097098;28;20120;-68
2023/04/22 10:57:51;;;;;;;3.38;3.05;;;;;;;32.99;12.68;98970.50;5067500;28;20039;-69
2023/04/22 11:00:22;;;;;;;5.53;1.90;;;;;;;32.44;12.80;98980.81;5087459;28;20487;-70
2023/04/22 11:02:54;;;;;;;3.85;1.90;;;;;;;30.84;13.39;98971.78;5086700;28;20031;-71
2023/04/22 11:05:22;;;;;;;4.93;1.40;;;;;;;29.65;14.38;98980.81;5034767;28;20516;-71
2023/04/22 11:07:49;;;;;;;7.55;2.40;;;;;;;28.63;14.97;98976.44;5070783;28;20793;-70
2023/04/22 11:10:40;;;;;;;5.32;1.50;;;;;;;28.01;15.32;98971.38;5069722;28;20035;-70
2023/04/22 11:13:07;;;;;;;5.07;1.20;;;;;;;30.15;14.17;98976.28;5088978;28;20040;-69
2023/04/22 11:15:38;;;;;;;10.20;1.80;;;;;;;32.90;12.79;98972.63;5103860;28;20052;-69
2023/04/22 11:18:09;;;;;;;6.90;1.85;;;;;;;34.90;11.83;98963.66;5071190;28;20039;-70
2023/04/22 11:20:36;;;;;;;3.30;2.30;;;;;;;36.03;11.41;98986.19;5088263;28;20040;-73
2023/04/22 11:23:02;;;;;;;3.05;1.30;;;;;;;36.21;11.06;98974.47;5089528;28;20043;-70
2023/04/22 11:25:28;;;;;;;4.32;1.30;;;;;;;33.71;11.89;98977.44;5103818;28;20046;-70
2023/04/22 11:27:54;;;;;;;4.18;1.40;;;;;;;33.23;12.15;98960.91;5089359;28;20442;-69
2023/04/22 11:30:22;;;;;;;3.03;1.73;;;;;;;34.68;11.50;98961.41;5070242;28;20138;-72
2023/04/22 11:32:51;;;;;;;12.55;3.85;;;;;;;36.76;10.93;98966.78;5054479;28;20036;-70
2023/04/22 11:35:23;;;;;;;2.55;1.77;;;;;;;37.81;10.09;98969.91;5104351;28;20044;-71
2023/04/22 11:37:50;;;;;;;3.42;1.40;;;;;;;35.79;10.85;98966.41;5087714;28;20059;-70
2023/04/22 11:40:24;;;;;;;2.92;1.90;;;;;;;33.40;11.71;98957.47;5070739;28;20074;-69